createdAt,value
2022-11-15T00:04:20.135Z,10.05
2022-11-15T00:08:40.822Z,9.88
2022-11-15T00:13:04.962Z,11.88
2022-11-15T00:17:25.373Z,10.43
2022-11-15T00:21:46.164Z,8.93
2022-11-15T00:26:07.299Z,8.63
2022-11-15T00:30:28.832Z,12.55
2022-11-15T00:34:49.773Z,11.95
2022-11-15T00:39:10.162Z,14.15
2022-11-15T00:43:31.434Z,11.63
2022-11-15T00:47:52.884Z,9.98
2022-11-15T00:52:13.225Z,10.32
2022-11-15T00:56:34.057Z,8.60
2022-11-15T01:00:55.842Z,10.63
2022-11-15T01:05:17.134Z,9.10
2022-11-15T01:09:37.787Z,10.07
2022-11-15T01:13:58.800Z,11.43
2022-11-15T01:18:19.666Z,11.88
2022-11-15T01:22:40.841Z,12.43
2022-11-15T01:27:01.418Z,11.55
2022-11-15T01:31:22.743Z,11.25
2022-11-15T01:35:43.782Z,10.73
2022-11-15T01:40:04.693Z,11.05
2022-11-15T01:44:34.554Z,9.45
2022-11-15T01:48:57.955Z,10.15
2022-11-15T01:53:22.601Z,9.57
2022-11-15T01:57:46.340Z,8.23
2022-11-15T02:02:06.992Z,8.93
2022-11-15T02:06:27.642Z,9.75
2022-11-15T02:10:48.205Z,15.68
2022-11-15T02:15:10.384Z,11.40
2022-11-15T02:19:33.965Z,8.75
2022-11-15T02:23:57.477Z,9.25
2022-11-15T02:28:45.763Z,9.88
2022-11-15T02:33:23.035Z,11.30
2022-11-15T02:37:46.377Z,9.88
2022-11-15T02:42:37.218Z,12.32
2022-11-15T02:47:14.340Z,12.20
2022-11-15T02:51:34.832Z,8.15
2022-11-15T02:55:57.579Z,8.32
2022-11-15T03:00:22.934Z,9.88
2022-11-15T03:04:49.764Z,10.95
2022-11-15T03:09:13.539Z,9.43
2022-11-15T03:13:41.619Z,9.73
2022-11-15T03:18:09.923Z,9.13
2022-11-15T03:22:36.140Z,8.98
2022-11-15T03:27:00.227Z,6.55
2022-11-15T03:31:45.689Z,7.18
2022-11-15T03:36:09.559Z,8.55
2022-11-15T03:40:46.678Z,7.20
2022-11-15T03:45:23.492Z,8.43
2022-11-15T03:49:47.902Z,7.88
2022-11-15T03:54:08.435Z,7.85
2022-11-15T03:58:29.263Z,7.88
2022-11-15T04:02:49.969Z,7.47
2022-11-15T04:07:11.010Z,7.05
2022-11-15T04:11:31.990Z,6.57
2022-11-15T04:15:53.034Z,7.57
2022-11-15T04:20:41.069Z,6.95
2022-11-15T04:25:01.781Z,7.85
2022-11-15T04:29:38.178Z,7.38
2022-11-15T04:33:59.119Z,7.93
2022-11-15T04:38:20.251Z,10.48
2022-11-15T04:42:43.910Z,9.25
2022-11-15T04:47:04.345Z,12.50
2022-11-15T04:51:24.908Z,10.50
2022-11-15T04:55:47.592Z,9.88
2022-11-15T05:00:17.633Z,10.63
2022-11-15T05:04:38.580Z,10.57
2022-11-15T05:08:59.698Z,11.48
2022-11-15T05:13:20.860Z,10.60
2022-11-15T05:17:42.146Z,9.20
2022-11-15T05:22:03.513Z,9.80
2022-11-15T05:26:24.628Z,10.82
2022-11-15T05:30:46.219Z,12.77
2022-11-15T05:35:13.575Z,10.82
2022-11-15T05:39:34.513Z,12.75
2022-11-15T05:43:55.615Z,13.70
2022-11-15T05:53:19.233Z,13.63
2022-11-15T05:57:47.821Z,13.68
2022-11-15T06:02:14.943Z,15.40
2022-11-15T06:06:38.675Z,13.77
2022-11-15T06:11:10.423Z,12.55
2022-11-15T06:15:45.628Z,14.65
2022-11-15T06:20:08.328Z,15.00
2022-11-15T06:24:29.725Z,17.25
2022-11-15T06:28:52.528Z,15.93
2022-11-15T06:33:14.993Z,17.20
2022-11-15T06:37:38.461Z,15.95
2022-11-15T06:42:02.688Z,15.30
2022-11-15T06:46:26.751Z,13.30
2022-11-15T06:51:07.329Z,15.57
2022-11-15T06:55:55.503Z,14.30
2022-11-15T07:00:20.466Z,14.23
2022-11-15T07:04:45.541Z,14.35
2022-11-15T07:09:09.084Z,13.27
2022-11-15T07:13:36.193Z,13.25
2022-11-15T07:18:02.004Z,11.77
2022-11-15T07:22:22.931Z,12.90
2022-11-15T07:26:44.861Z,11.90
2022-11-15T07:31:08.285Z,10.70
2022-11-15T07:35:31.081Z,12.48
2022-11-15T07:39:51.493Z,11.88
2022-11-15T07:44:12.342Z,12.38
2022-11-15T07:48:43.314Z,11.82
2022-11-15T07:53:05.980Z,11.27
2022-11-15T07:57:26.455Z,10.48
2022-11-15T08:01:48.138Z,10.98
2022-11-15T08:06:09.017Z,10.90
2022-11-15T08:10:36.354Z,10.43
2022-11-15T08:15:01.231Z,9.35
2022-11-15T08:19:22.978Z,9.02
2022-11-15T08:23:44.690Z,9.50
2022-11-15T08:28:07.565Z,8.02
2022-11-15T08:32:27.998Z,8.35
2022-11-15T08:36:49.095Z,7.82
2022-11-15T08:41:19.628Z,6.65
2022-11-15T08:45:40.413Z,6.65
2022-11-15T08:50:01.625Z,7.15
2022-11-15T08:54:25.408Z,6.70
2022-11-15T08:58:46.196Z,6.18
2022-11-15T09:03:08.625Z,6.47
2022-11-15T09:07:31.069Z,6.30
2022-11-15T09:11:55.725Z,6.18
2022-11-15T09:16:18.929Z,5.45
2022-11-15T09:20:40.479Z,5.65
2022-11-15T09:25:01.257Z,6.03
2022-11-15T09:29:22.861Z,6.25
2022-11-15T09:33:48.890Z,6.07
2022-11-15T09:38:11.081Z,7.68
2022-11-15T09:42:57.061Z,6.75
2022-11-15T09:47:43.361Z,8.68
2022-11-15T09:52:11.305Z,16.25
2022-11-15T09:56:21.173Z,7.10
2022-11-15T10:00:46.412Z,6.15
2022-11-15T10:04:49.464Z,6.28
2022-11-15T10:09:04.253Z,5.90
2022-11-15T10:13:15.889Z,6.65
2022-11-15T10:17:56.936Z,6.47
2022-11-15T10:22:28.130Z,6.95
2022-11-15T10:26:31.248Z,6.53
2022-11-15T10:30:37.136Z,7.28
2022-11-15T10:44:08.714Z,8.13
2022-11-15T10:48:37.626Z,8.60
2022-11-15T10:52:46.891Z,8.23
2022-11-15T10:56:56.346Z,8.70
2022-11-15T11:01:20.595Z,8.98
2022-11-15T11:05:42.304Z,8.48
2022-11-15T11:09:44.689Z,9.20
2022-11-15T11:13:46.864Z,9.25
2022-11-15T11:17:58.489Z,9.63
2022-11-15T11:22:23.204Z,9.02
2022-11-15T11:26:31.538Z,9.27
2022-11-15T11:31:04.997Z,9.18
2022-11-15T11:35:15.470Z,10.38
2022-11-15T11:39:33.014Z,9.00
2022-11-15T11:44:13.630Z,9.60
2022-11-15T11:48:30.340Z,9.32
2022-11-15T11:52:40.357Z,10.35
2022-11-15T11:56:45.471Z,11.52
2022-11-15T12:00:55.706Z,12.40
2022-11-15T12:05:24.063Z,10.07
2022-11-15T12:10:00.921Z,9.32
2022-11-15T12:14:11.408Z,9.00
2022-11-15T12:18:17.804Z,9.98
2022-11-15T12:22:38.321Z,9.48
2022-11-15T12:26:55.621Z,9.27
2022-11-15T12:31:06.434Z,10.07
2022-11-15T12:35:26.411Z,8.57
2022-11-15T12:40:05.838Z,10.10
2022-11-15T12:44:13.761Z,11.98
2022-11-15T12:48:19.438Z,16.45
2022-11-15T12:52:22.231Z,11.25
2022-11-15T12:56:26.698Z,13.55
2022-11-15T13:00:31.773Z,13.70
2022-11-15T13:04:35.706Z,9.77
2022-11-15T13:08:41.087Z,9.27
2022-11-15T13:12:49.086Z,20.20
2022-11-15T13:17:01.653Z,12.60
2022-11-15T13:21:42.578Z,17.60
2022-11-15T13:26:07.540Z,13.18
2022-11-15T13:34:53.241Z,9.88
2022-11-15T13:39:27.024Z,11.02
2022-11-15T13:43:35.135Z,9.20
2022-11-15T13:47:40.983Z,11.07
2022-11-15T13:51:52.452Z,11.60
2022-11-15T13:55:59.225Z,10.25
2022-11-15T14:00:23.228Z,11.68
2022-11-15T14:04:30.788Z,12.65
2022-11-15T14:08:34.737Z,11.75
2022-11-15T14:12:38.278Z,10.55
2022-11-15T14:16:43.386Z,11.43
2022-11-15T14:20:48.655Z,10.60
2022-11-15T14:25:23.284Z,11.20
2022-11-15T14:29:30.875Z,11.95
2022-11-15T14:33:38.127Z,13.45
2022-11-15T14:37:41.350Z,13.18
2022-11-15T14:41:43.911Z,14.43
2022-11-15T14:45:49.184Z,13.52
2022-11-15T14:49:52.090Z,11.55
2022-11-15T14:53:56.389Z,11.60
2022-11-15T14:58:05.080Z,11.02
2022-11-15T15:02:29.038Z,12.10
2022-11-15T15:06:31.869Z,15.40
2022-11-15T15:10:40.766Z,16.77
2022-11-15T15:14:43.570Z,13.73
2022-11-15T15:18:46.236Z,16.48
2022-11-15T15:22:48.527Z,14.70
2022-11-15T15:26:50.783Z,15.68
2022-11-15T15:30:54.282Z,22.53
2022-11-15T15:35:01.216Z,19.95
2022-11-15T15:39:04.925Z,22.02
2022-11-15T15:43:10.032Z,26.58
2022-11-15T15:47:17.986Z,15.88
2022-11-15T15:51:20.835Z,16.73
2022-11-15T15:55:23.746Z,14.00
2022-11-15T15:59:25.796Z,12.10
2022-11-15T16:03:28.726Z,15.63
2022-11-15T16:07:31.003Z,16.23
2022-11-15T16:11:33.390Z,12.15
2022-11-15T16:15:36.456Z,9.60
2022-11-15T16:19:38.538Z,9.85
2022-11-15T16:23:40.585Z,11.43
2022-11-15T16:27:45.958Z,14.30
2022-11-15T16:31:48.202Z,12.80
2022-11-15T16:35:50.357Z,14.25
2022-11-15T16:39:55.926Z,13.43
2022-11-15T16:44:00.770Z,11.65
2022-11-15T16:54:10.834Z,6.85
2022-11-15T16:58:12.926Z,8.43
2022-11-15T17:02:15.256Z,8.68
2022-11-15T17:06:18.995Z,7.03
2022-11-15T17:10:22.845Z,9.13
2022-11-15T17:14:24.956Z,12.90
2022-11-15T17:18:27.007Z,11.25
2022-11-15T17:22:29.032Z,11.38
2022-11-15T17:26:35.055Z,11.45
2022-11-15T17:30:41.951Z,12.15
2022-11-15T17:34:44.331Z,12.10
2022-11-15T17:38:50.497Z,9.80
2022-11-15T17:42:53.445Z,11.27
2022-11-15T17:46:55.752Z,9.25
2022-11-15T17:51:00.661Z,8.70
2022-11-15T17:55:03.081Z,8.90
2022-11-15T17:59:09.055Z,9.30
2022-11-15T18:03:15.356Z,9.10
2022-11-15T18:07:17.548Z,12.13
2022-11-15T18:11:22.808Z,14.02
2022-11-15T18:15:24.912Z,12.23
2022-11-15T18:19:26.981Z,11.65
2022-11-15T18:23:29.373Z,10.75
2022-11-15T18:27:31.518Z,11.65
2022-11-15T18:31:33.680Z,12.45
2022-11-15T18:35:35.859Z,10.93
2022-11-15T18:39:38.017Z,16.00
2022-11-15T18:43:40.690Z,15.77
2022-11-15T18:47:42.795Z,20.65
2022-11-15T18:51:44.907Z,15.35
2022-11-15T18:55:46.980Z,17.85
2022-11-15T18:59:49.752Z,16.80
2022-11-15T19:03:54.245Z,14.63
2022-11-15T19:11:58.836Z,15.10
2022-11-15T19:16:02.594Z,16.17
2022-11-15T19:20:05.330Z,14.67
2022-11-15T19:24:07.851Z,17.60
2022-11-15T19:28:12.015Z,18.80
2022-11-15T19:32:14.269Z,23.52
2022-11-15T19:36:19.955Z,20.25
2022-11-15T19:40:21.995Z,19.10
2022-11-15T19:44:26.356Z,15.70
2022-11-15T19:48:29.999Z,16.83
2022-11-15T19:52:32.295Z,19.87
2022-11-15T19:56:35.538Z,17.17
2022-11-15T20:00:37.836Z,19.15
2022-11-15T20:04:41.067Z,20.95
2022-11-15T20:08:44.627Z,20.08
2022-11-15T20:12:46.748Z,19.50
2022-11-15T20:16:53.958Z,19.83
2022-11-15T20:20:58.550Z,18.08
2022-11-15T20:25:00.640Z,18.27
2022-11-15T20:29:03.593Z,15.63
2022-11-15T20:33:05.623Z,14.60
2022-11-15T20:37:08.110Z,15.95
2022-11-15T20:41:10.719Z,16.08
2022-11-15T20:45:12.775Z,15.98
2022-11-15T20:49:14.989Z,17.35
2022-11-15T20:53:19.080Z,16.02
2022-11-15T20:57:21.222Z,19.65
2022-11-15T21:01:24.775Z,20.15
2022-11-15T21:05:27.165Z,21.70
2022-11-15T21:09:49.382Z,19.83
2022-11-15T21:13:51.712Z,18.63
2022-11-15T21:17:53.995Z,18.45
2022-11-15T21:21:56.132Z,17.90
2022-11-15T21:25:58.414Z,18.05
2022-11-15T21:30:00.454Z,17.50
2022-11-15T21:34:03.748Z,18.92
2022-11-15T21:38:05.915Z,19.95
2022-11-15T21:42:08.058Z,21.00
2022-11-15T21:46:10.135Z,18.85
2022-11-15T21:50:12.145Z,19.52
2022-11-15T21:54:14.369Z,20.85
2022-11-15T21:58:16.416Z,21.38
2022-11-15T22:02:18.418Z,18.75
2022-11-15T22:06:20.927Z,19.23
2022-11-15T22:10:23.045Z,17.88
2022-11-15T22:14:25.182Z,26.35
2022-11-15T22:18:27.360Z,23.20
2022-11-15T22:22:29.553Z,21.13
2022-11-15T22:26:31.657Z,32.45
2022-11-15T22:30:33.682Z,26.05
2022-11-15T22:34:35.729Z,23.17
2022-11-15T22:38:37.905Z,22.52
2022-11-15T22:42:39.886Z,24.73
2022-11-15T22:46:41.912Z,22.95
2022-11-15T22:50:44.936Z,20.67
2022-11-15T22:54:47.056Z,18.35
2022-11-15T22:58:49.259Z,19.10
2022-11-15T23:02:54.392Z,18.95
2022-11-15T23:06:56.834Z,17.83
2022-11-15T23:11:22.095Z,22.40
2022-11-15T23:15:28.339Z,23.20
2022-11-15T23:19:34.261Z,24.23
2022-11-15T23:23:36.939Z,24.27
2022-11-15T23:27:39.619Z,23.95
2022-11-15T23:32:02.508Z,23.80
2022-11-15T23:36:06.236Z,21.45
2022-11-15T23:40:09.328Z,23.48
2022-11-15T23:44:11.782Z,24.60
2022-11-15T23:48:14.343Z,22.73
2022-11-15T23:52:18.653Z,22.42
2022-11-15T23:56:22.078Z,20.45
